Time;durP1;ratioP1;P1;durP2;ratioP2;P2;SDS_P1;SDS_P2;PMS_P1;PMS_P2;Temp;Humidity;BMP_temperature;BMP_pressure;BME280_temperature;BME280_humidity;BME280_pressure;Samples;Min_cycle;Max_cycle;Signal;HPM_P1;HPM_P2
2021/07/26 00:01:49;;;;;;;5.75;3.25;;;16.90;99.90;;;;;;5063315;28;20497;-74
2021/07/26 00:04:15;;;;;;;7.13;4.00;;;16.90;99.90;;;;;;5061879;28;20039;-74
2021/07/26 00:06:43;;;;;;;4.65;3.90;;;16.90;99.90;;;;;;5062557;28;20040;-74
2021/07/26 00:09:09;;;;;;;6.93;4.88;;;16.90;99.90;;;;;;5060296;28;20032;-74
2021/07/26 00:11:35;;;;;;;7.22;4.22;;;16.80;99.90;;;;;;5065410;28;20060;-74
2021/07/26 00:14:00;;;;;;;5.43;4.13;;;16.80;99.90;;;;;;5067085;28;20177;-74
2021/07/26 00:16:26;;;;;;;3.90;3.60;;;16.80;99.90;;;;;;5066254;28;20533;-74
2021/07/26 00:18:52;;;;;;;5.32;3.80;;;16.80;99.90;;;;;;5069746;28;20071;-74
2021/07/26 00:21:18;;;;;;;3.67;3.30;;;16.70;99.90;;;;;;5067543;28;20040;-74
2021/07/26 00:23:44;;;;;;;6.97;3.78;;;16.70;99.90;;;;;;5066920;28;20041;-74
2021/07/26 00:26:09;;;;;;;11.18;3.63;;;16.70;99.90;;;;;;5064661;28;20048;-74
2021/07/26 00:28:35;;;;;;;8.15;5.65;;;16.70;99.90;;;;;;5065792;28;20040;-74
2021/07/26 00:31:01;;;;;;;5.93;3.53;;;16.70;99.90;;;;;;5070027;28;20044;-74
2021/07/26 00:34:09;;;;;;;4.35;3.97;;;16.70;99.90;;;;;;5064892;28;20040;-74
2021/07/26 00:36:37;;;;;;;5.68;4.30;;;16.70;99.90;;;;;;5063804;28;20051;-74
2021/07/26 00:39:04;;;;;;;5.47;4.97;;;16.70;99.90;;;;;;5066889;28;20041;-74
2021/07/26 00:41:30;;;;;;;6.47;5.32;;;16.70;99.90;;;;;;5063173;28;20517;-74
2021/07/26 00:43:56;;;;;;;7.60;5.00;;;16.70;99.90;;;;;;5065975;28;20090;-74
2021/07/26 00:46:22;;;;;;;7.22;5.57;;;16.80;99.90;;;;;;5064078;28;20045;-74
2021/07/26 00:48:48;;;;;;;7.03;5.88;;;16.80;99.90;;;;;;5065572;28;20067;-74
2021/07/26 00:51:14;;;;;;;6.57;5.63;;;16.80;99.90;;;;;;5066126;28;20044;-74
2021/07/26 00:53:40;;;;;;;6.93;5.20;;;16.70;99.90;;;;;;5066635;28;20048;-74
2021/07/26 00:56:07;;;;;;;6.90;5.78;;;16.70;99.90;;;;;;5066198;28;20029;-74
2021/07/26 00:58:34;;;;;;;7.63;5.20;;;16.80;99.90;;;;;;5066389;28;20605;-74
2021/07/26 01:01:00;;;;;;;8.30;5.43;;;16.80;99.90;;;;;;5064891;28;20042;-74
2021/07/26 01:03:26;;;;;;;6.57;4.65;;;16.80;99.90;;;;;;5065267;28;20080;-74
2021/07/26 01:05:51;;;;;;;6.72;5.10;;;16.80;99.90;;;;;;5066251;28;20071;-74
2021/07/26 01:08:17;;;;;;;9.85;6.00;;;16.80;99.90;;;;;;5066311;28;20037;-74
2021/07/26 01:10:43;;;;;;;7.10;5.60;;;16.80;99.90;;;;;;5066730;28;20516;-74
2021/07/26 01:13:09;;;;;;;5.88;5.18;;;16.90;99.90;;;;;;5065900;28;20056;-74
2021/07/26 01:15:34;;;;;;;7.43;5.68;;;16.90;99.90;;;;;;5066289;28;20043;-74
2021/07/26 01:18:30;;;;;;;7.88;5.80;;;16.90;99.90;;;;;;5064026;28;20064;-74
2021/07/26 01:21:05;;;;;;;5.78;5.25;;;16.90;99.90;;;;;;5071990;28;20399;-74
2021/07/26 01:23:42;;;;;;;5.60;3.17;;;16.90;99.90;;;;;;5063198;28;20059;-74
2021/07/26 01:26:10;;;;;;;4.88;2.90;;;16.80;99.90;;;;;;5066508;28;20158;-74
2021/07/26 01:29:07;;;;;;;6.60;3.30;;;16.80;99.90;;;;;;5059467;28;20041;-74
2021/07/26 01:31:33;;;;;;;;;;;16.70;99.90;;;;;;5048942;28;21119;-74
2021/07/26 01:34:00;;;;;;;3.70;3.42;;;16.70;99.90;;;;;;5052170;28;19982;-74
2021/07/26 01:36:27;;;;;;;5.50;3.40;;;16.60;99.90;;;;;;5049494;28;20040;-74
2021/07/26 01:38:53;;;;;;;5.75;3.20;;;16.60;99.90;;;;;;5049285;28;20199;-74
2021/07/26 01:41:22;;;;;;;6.78;3.30;;;16.60;99.90;;;;;;5048393;28;21151;-74
2021/07/26 01:44:15;;;;;;;7.60;3.17;;;16.50;99.90;;;;;;5049874;28;20959;-74
2021/07/26 01:46:52;;;;;;;5.13;2.50;;;16.60;99.90;;;;;;5054094;28;20090;-74
2021/07/26 01:49:53;;;;;;;63.92;4.57;;;16.50;99.90;;;;;;5048199;28;20977;-74
2021/07/26 01:52:19;;;;;;;9.27;2.20;;;16.40;99.90;;;;;;5048984;28;20456;-74
2021/07/26 01:54:46;;;;;;;17.77;3.03;;;16.40;99.90;;;;;;5051748;28;20041;-73
2021/07/26 01:57:12;;;;;;;8.77;2.75;;;16.30;99.90;;;;;;5050060;28;20044;-74
2021/07/26 01:59:38;;;;;;;6.50;1.80;;;16.30;99.90;;;;;;5048688;28;20054;-74
2021/07/26 02:02:04;;;;;;;3.88;3.00;;;16.30;99.90;;;;;;5052090;28;20402;-74
2021/07/26 02:04:30;;;;;;;1.95;0.75;;;16.30;99.90;;;;;;5048278;28;20040;-74
2021/07/26 02:06:56;;;;;;;4.55;1.20;;;16.30;99.90;;;;;;5048682;28;20093;-74
2021/07/26 02:09:21;;;;;;;1.25;0.70;;;16.20;99.90;;;;;;5050292;28;20291;-74
2021/07/26 02:11:47;;;;;;;63.65;2.60;;;16.20;99.90;;;;;;5050249;28;20470;-74
2021/07/26 02:14:14;;;;;;;6.72;1.23;;;16.20;99.90;;;;;;5053147;28;20546;-74
2021/07/26 02:16:42;;;;;;;17.40;3.20;;;16.20;99.90;;;;;;5049765;28;20048;-74
2021/07/26 02:19:08;;;;;;;26.10;4.00;;;16.20;99.90;;;;;;5051635;28;20036;-74
2021/07/26 02:21:34;;;;;;;6.57;3.92;;;16.20;99.90;;;;;;5054991;28;20052;-74
2021/07/26 02:24:03;;;;;;;3.80;3.50;;;16.20;99.90;;;;;;5048537;28;20604;-73
2021/07/26 02:26:28;;;;;;;6.07;3.95;;;16.20;99.90;;;;;;5049933;28;20041;-74
2021/07/26 02:28:54;;;;;;;6.85;4.68;;;16.20;99.90;;;;;;5055066;28;20516;-73
2021/07/26 02:31:20;;;;;;;8.15;6.07;;;16.30;99.90;;;;;;5049007;28;20044;-73
2021/07/26 02:33:46;;;;;;;8.30;6.57;;;16.20;99.90;;;;;;5049786;28;20032;-73
2021/07/26 02:36:11;;;;;;;5.68;5.03;;;16.30;99.90;;;;;;5049228;28;21350;-74
2021/07/26 02:38:37;;;;;;;5.82;5.32;;;16.30;99.90;;;;;;5049685;28;20040;-73
2021/07/26 02:41:14;;;;;;;8.73;6.25;;;16.30;99.90;;;;;;5049581;28;20060;-73
2021/07/26 02:43:40;;;;;;;8.07;5.20;;;16.40;99.90;;;;;;5053025;28;20082;-74
2021/07/26 02:46:06;;;;;;;6.00;5.10;;;16.40;99.90;;;;;;5051463;28;20042;-73
2021/07/26 02:48:33;;;;;;;4.80;2.90;;;16.40;99.90;;;;;;5052624;28;20044;-74
2021/07/26 02:51:00;;;;;;;7.40;4.25;;;16.40;99.90;;;;;;5049343;28;20041;-73
2021/07/26 02:53:26;;;;;;;6.38;5.47;;;16.40;99.90;;;;;;5049212;28;20044;-74
2021/07/26 02:55:52;;;;;;;11.40;7.90;;;16.30;99.90;;;;;;5051341;28;21789;-74
2021/07/26 02:58:20;;;;;;;8.98;8.05;;;16.40;99.90;;;;;;5049272;28;20102;-73
2021/07/26 03:00:46;;;;;;;9.60;8.02;;;16.40;99.90;;;;;;5052283;28;20146;-73
2021/07/26 03:03:12;;;;;;;11.75;7.28;;;16.40;99.90;;;;;;5049243;28;20110;-73
2021/07/26 03:05:38;;;;;;;8.90;8.10;;;16.50;99.90;;;;;;5049640;28;20486;-73
2021/07/26 03:08:04;;;;;;;10.90;8.85;;;16.50;99.90;;;;;;5049617;28;20029;-73
2021/07/26 03:10:30;;;;;;;12.75;8.95;;;16.50;99.90;;;;;;5049106;28;20389;-73
2021/07/26 03:12:55;;;;;;;13.68;6.95;;;16.40;99.90;;;;;;5051048;28;20221;-73
2021/07/26 03:15:23;;;;;;;9.38;6.40;;;16.50;99.90;;;;;;5048542;28;20076;-73
2021/07/26 03:17:49;;;;;;;8.27;7.53;;;16.40;99.90;;;;;;5049808;28;20048;-73
2021/07/26 03:20:17;;;;;;;27.00;5.88;;;16.40;99.90;;;;;;5058482;28;20033;-74
2021/07/26 03:22:56;;;;;;;239.93;11.25;;;16.40;99.90;;;;;;5049733;28;20032;-73
2021/07/26 03:25:22;;;;;;;25.50;4.38;;;16.30;99.90;;;;;;5050747;28;20039;-73
2021/07/26 03:27:48;;;;;;;6.57;4.82;;;16.20;99.90;;;;;;5050668;28;20092;-73
2021/07/26 03:30:16;;;;;;;184.85;9.05;;;16.10;99.90;;;;;;5047784;28;20072;-73
2021/07/26 03:32:41;;;;;;;40.25;5.63;;;16.10;99.90;;;;;;5049145;28;20453;-73
2021/07/26 03:35:08;;;;;;;9.45;4.97;;;16.00;99.90;;;;;;5048718;28;20047;-73
2021/07/26 03:37:34;;;;;;;5.07;4.55;;;16.00;99.90;;;;;;5048240;28;20414;-73
2021/07/26 03:39:59;;;;;;;8.20;4.90;;;16.10;99.90;;;;;;5048460;28;20048;-73
2021/07/26 03:42:25;;;;;;;11.13;6.53;;;16.10;99.90;;;;;;5047773;28;20388;-73
2021/07/26 03:44:51;;;;;;;7.90;4.18;;;16.10;99.90;;;;;;5047405;28;20053;-73
2021/07/26 03:47:18;;;;;;;3.47;3.15;;;16.10;99.90;;;;;;5049830;28;20094;-73
2021/07/26 03:49:44;;;;;;;4.05;2.80;;;16.10;99.90;;;;;;5050574;28;20044;-73
2021/07/26 03:52:09;;;;;;;2.47;1.75;;;16.10;99.90;;;;;;5048003;28;20110;-73
2021/07/26 03:54:35;;;;;;;10.32;3.15;;;16.00;99.90;;;;;;5051459;28;20112;-73
2021/07/26 03:57:00;;;;;;;9.98;3.00;;;16.00;99.90;;;;;;5049566;28;20408;-73
2021/07/26 03:59:26;;;;;;;11.23;6.38;;;16.00;99.90;;;;;;5050122;28;20043;-73
2021/07/26 04:01:55;;;;;;;9.15;7.47;;;16.00;99.90;;;;;;5048280;28;21109;-73
2021/07/26 04:04:22;;;;;;;10.68;5.60;;;16.00;99.90;;;;;;5048808;28;20544;-73
2021/07/26 04:06:52;;;;;;;5.35;3.97;;;16.10;99.90;;;;;;5047185;28;20126;-73
2021/07/26 04:09:20;;;;;;;3.63;2.00;;;16.10;99.90;;;;;;5050684;28;20045;-73
2021/07/26 04:11:47;;;;;;;3.05;1.98;;;16.00;99.90;;;;;;5048509;28;20048;-73
2021/07/26 04:14:15;;;;;;;65.68;3.95;;;15.90;99.90;;;;;;5047395;28;20060;-73
2021/07/26 04:16:40;;;;;;;3.65;2.13;;;15.90;99.90;;;;;;5047029;28;20036;-73
2021/07/26 04:19:10;;;;;;;2.83;2.33;;;15.90;99.90;;;;;;5049377;28;20041;-73
2021/07/26 04:21:35;;;;;;;5.85;4.60;;;15.90;99.90;;;;;;5061820;28;20040;-73
2021/07/26 04:24:03;;;;;;;7.88;7.03;;;16.00;99.90;;;;;;5048482;28;20162;-73
2021/07/26 04:26:33;;;;;;;7.82;7.10;;;16.00;99.90;;;;;;5047664;28;20897;-73
2021/07/26 04:28:59;;;;;;;9.13;6.93;;;16.10;99.90;;;;;;5052254;28;20055;-73
2021/07/26 04:31:25;;;;;;;9.73;8.73;;;16.20;99.90;;;;;;5047979;28;21485;-73
2021/07/26 04:33:51;;;;;;;11.02;9.88;;;16.30;99.90;;;;;;5048082;28;20070;-73
2021/07/26 04:36:17;;;;;;;9.55;6.20;;;16.40;99.90;;;;;;5046690;28;20056;-73
2021/07/26 04:38:42;;;;;;;6.43;4.72;;;16.50;99.90;;;;;;5050202;28;20044;-73
2021/07/26 04:41:12;;;;;;;9.55;6.07;;;16.60;99.90;;;;;;5047899;28;20048;-73
2021/07/26 04:43:39;;;;;;;10.43;6.57;;;16.60;99.90;;;;;;5050835;28;20036;-73
2021/07/26 04:46:09;;;;;;;6.68;5.88;;;16.70;99.90;;;;;;5049076;28;20036;-73
2021/07/26 04:48:34;;;;;;;5.82;4.90;;;16.70;99.90;;;;;;5047491;28;20037;-73
2021/07/26 04:51:01;;;;;;;5.88;5.38;;;16.70;99.90;;;;;;5049250;28;20048;-73
2021/07/26 04:53:34;;;;;;;9.63;6.13;;;16.80;99.90;;;;;;5047734;28;20045;-73
2021/07/26 04:56:00;;;;;;;7.53;6.05;;;16.80;99.90;;;;;;5049055;28;20037;-73
2021/07/26 04:58:25;;;;;;;5.68;5.28;;;16.80;99.90;;;;;;5050724;28;20052;-73
2021/07/26 05:00:51;;;;;;;5.60;5.20;;;16.80;99.90;;;;;;5050760;28;20175;-73
2021/07/26 05:03:17;;;;;;;7.63;6.90;;;16.80;99.90;;;;;;5051638;28;20595;-73
2021/07/26 05:05:43;;;;;;;7.35;5.88;;;17.00;99.90;;;;;;5052838;28;20113;-73
2021/07/26 05:08:09;;;;;;;5.22;4.75;;;17.00;99.90;;;;;;5049496;28;20572;-73
2021/07/26 05:10:34;;;;;;;7.43;6.68;;;17.00;99.90;;;;;;5050971;28;20052;-74
2021/07/26 05:13:00;;;;;;;7.25;6.65;;;17.10;99.90;;;;;;5051953;28;20086;-73
2021/07/26 05:15:26;;;;;;;7.80;7.18;;;17.20;99.90;;;;;;5049693;28;20117;-73
2021/07/26 05:17:52;;;;;;;7.35;6.70;;;17.30;99.90;;;;;;5050909;28;20127;-73
2021/07/26 05:20:41;;;;;;;7.18;6.45;;;17.50;99.90;;;;;;5055109;28;20047;-74
2021/07/26 05:23:10;;;;;;;9.07;7.75;;;17.80;99.90;;;;;;5052853;28;20768;-73
2021/07/26 05:25:41;;;;;;;8.02;7.32;;;18.30;99.90;;;;;;5050697;28;20036;-73
2021/07/26 05:28:06;;;;;;;9.35;8.55;;;18.80;99.90;;;;;;5055271;28;20036;-73
2021/07/26 05:30:32;;;;;;;10.02;9.23;;;19.20;99.90;;;;;;5050776;28;20521;-73
2021/07/26 05:32:58;;;;;;;10.25;9.45;;;19.70;99.90;;;;;;5050468;28;20036;-74
2021/07/26 05:35:24;;;;;;;11.15;8.77;;;20.10;99.90;;;;;;5047007;28;20044;-74
2021/07/26 05:37:49;;;;;;;12.98;10.15;;;20.50;99.90;;;;;;5052448;28;20151;-74
2021/07/26 05:40:15;;;;;;;11.02;9.38;;;20.70;99.90;;;;;;5049482;28;20110;-74
2021/07/26 05:42:41;;;;;;;10.55;9.73;;;20.90;99.90;;;;;;5052715;28;20055;-74
2021/07/26 05:45:08;;;;;;;9.82;8.88;;;21.30;99.90;;;;;;5051515;28;20426;-74
2021/07/26 05:47:34;;;;;;;9.70;8.90;;;21.70;99.90;;;;;;5053059;28;20122;-74
2021/07/26 05:50:00;;;;;;;11.13;10.10;;;22.00;99.90;;;;;;5050390;28;20059;-74
2021/07/26 05:52:26;;;;;;;10.60;9.10;;;22.30;99.90;;;;;;5049349;28;20162;-74
2021/07/26 05:54:52;;;;;;;10.23;9.05;;;22.60;99.90;;;;;;5049942;28;20159;-74
2021/07/26 05:57:20;;;;;;;12.73;9.75;;;22.90;99.90;;;;;;5049733;28;20048;-74
2021/07/26 05:59:46;;;;;;;9.88;9.13;;;23.20;99.90;;;;;;5051107;28;20029;-74
2021/07/26 06:02:11;;;;;;;9.90;9.00;;;23.30;99.90;;;;;;5051769;28;20045;-74
2021/07/26 06:04:38;;;;;;;11.60;8.93;;;23.40;99.90;;;;;;5051360;28;20076;-74
2021/07/26 06:07:04;;;;;;;10.70;9.43;;;23.50;99.90;;;;;;5052428;28;20053;-75
2021/07/26 06:09:30;;;;;;;10.35;7.90;;;23.60;99.90;;;;;;5049098;28;20497;-75
2021/07/26 06:11:56;;;;;;;10.20;8.20;;;23.70;99.90;;;;;;5049209;28;21916;-75
2021/07/26 06:14:22;;;;;;;9.43;8.48;;;23.80;99.90;;;;;;5049849;28;20131;-75
2021/07/26 06:16:51;;;;;;;9.43;8.68;;;23.80;99.90;;;;;;5049559;28;20048;-75
2021/07/26 06:19:18;;;;;;;9.85;8.85;;;24.00;99.90;;;;;;5056225;28;20079;-75
2021/07/26 06:21:50;;;;;;;9.55;8.60;;;24.10;99.90;;;;;;5050019;28;20040;-75
2021/07/26 06:24:17;;;;;;;11.07;9.35;;;24.20;99.90;;;;;;5049123;28;20041;-75
2021/07/26 06:26:43;;;;;;;12.45;9.10;;;24.20;99.90;;;;;;5049558;28;20037;-75
2021/07/26 06:29:09;;;;;;;10.10;9.20;;;24.20;99.90;;;;;;5051850;28;20036;-75
2021/07/26 06:31:36;;;;;;;11.60;9.40;;;24.20;99.90;;;;;;5046392;28;20036;-75
2021/07/26 06:34:03;;;;;;;10.38;9.40;;;24.20;99.90;;;;;;5049520;28;20037;-75
2021/07/26 06:36:29;;;;;;;14.88;9.05;;;24.10;99.90;;;;;;5052255;28;20063;-75
2021/07/26 06:38:56;;;;;;;10.98;9.88;;;24.20;99.90;;;;;;5049022;28;20049;-75
2021/07/26 06:41:22;;;;;;;12.60;10.50;;;24.20;99.90;;;;;;5051033;28;20381;-75
2021/07/26 06:43:51;;;;;;;15.27;9.23;;;24.30;99.90;;;;;;5049549;28;20123;-76
2021/07/26 06:46:16;;;;;;;12.75;9.85;;;24.30;99.90;;;;;;5049791;28;20044;-76
2021/07/26 06:48:42;;;;;;;9.63;8.73;;;24.30;99.90;;;;;;5049654;28;20046;-76
2021/07/26 06:51:08;;;;;;;11.68;9.25;;;24.20;99.90;;;;;;5047452;28;20443;-76
2021/07/26 06:53:35;;;;;;;9.98;8.77;;;24.00;99.90;;;;;;5049012;28;20040;-76
2021/07/26 06:56:06;;;;;;;13.75;9.90;;;23.90;99.90;;;;;;5049710;28;20037;-76
2021/07/26 06:58:33;;;;;;;10.80;8.55;;;24.00;99.90;;;;;;5051750;28;20048;-76
2021/07/26 07:01:04;;;;;;;8.73;7.97;;;24.00;99.90;;;;;;5052599;28;20111;-76
2021/07/26 07:03:29;;;;;;;8.13;7.28;;;24.00;99.90;;;;;;5066699;28;20147;-77
2021/07/26 07:06:13;;;;;;;9.85;7.75;;;23.90;99.90;;;;;;5048483;28;20047;-76
2021/07/26 07:08:40;;;;;;;10.35;8.07;;;24.00;99.90;;;;;;5049685;28;20127;-77
2021/07/26 07:11:08;;;;;;;11.27;9.68;;;24.20;99.90;;;;;;5049110;28;20067;-76
2021/07/26 07:13:35;;;;;;;13.45;8.32;;;24.30;99.90;;;;;;5049092;28;20402;-77
2021/07/26 07:16:02;;;;;;;8.27;7.05;;;24.60;99.90;;;;;;5051009;28;20048;-77
2021/07/26 07:18:29;;;;;;;11.65;9.10;;;24.60;99.90;;;;;;5059544;28;20041;-77
2021/07/26 07:20:56;;;;;;;8.35;7.65;;;24.70;99.90;;;;;;5061598;28;20040;-77
2021/07/26 07:23:22;;;;;;;7.82;7.03;;;24.70;99.90;;;;;;5062387;28;20499;-77
2021/07/26 07:25:47;;;;;;;7.68;6.97;;;24.70;99.90;;;;;;5059690;28;20040;-77
2021/07/26 07:28:13;;;;;;;9.10;7.15;;;24.60;99.90;;;;;;5062806;28;20037;-77
2021/07/26 07:30:40;;;;;;;8.60;7.50;;;24.60;99.90;;;;;;5064533;28;20036;-77
2021/07/26 07:33:06;;;;;;;8.40;7.47;;;24.60;99.90;;;;;;5065286;28;20032;-77
2021/07/26 07:35:33;;;;;;;8.93;8.02;;;24.70;99.90;;;;;;5063569;28;20184;-77
2021/07/26 07:37:59;;;;;;;8.68;7.90;;;24.80;99.90;;;;;;5054139;28;20044;-77
2021/07/26 07:40:24;;;;;;;9.25;8.45;;;24.80;99.90;;;;;;5063157;28;20876;-77
2021/07/26 07:42:50;;;;;;;9.93;7.82;;;24.90;99.90;;;;;;5066623;28;20401;-77
2021/07/26 07:45:16;;;;;;;10.52;7.75;;;24.70;99.90;;;;;;5067043;28;20079;-77
2021/07/26 07:47:42;;;;;;;7.72;7.07;;;24.70;99.90;;;;;;5064044;28;20059;-77
2021/07/26 07:50:12;;;;;;;9.65;8.40;;;24.60;99.90;;;;;;5063610;28;20478;-76
2021/07/26 07:52:38;;;;;;;12.43;8.02;;;24.60;99.90;;;;;;5066938;28;20036;-76
2021/07/26 07:55:06;;;;;;;8.60;7.82;;;24.50;99.90;;;;;;5063870;28;20063;-76
2021/07/26 07:57:35;;;;;;;8.45;7.65;;;24.50;99.90;;;;;;5066183;28;20046;-76
2021/07/26 08:00:03;;;;;;;7.95;7.13;;;24.40;99.90;;;;;;5063360;28;20042;-76
2021/07/26 08:02:28;;;;;;;7.78;6.75;;;24.40;99.90;;;;;;5063475;28;20036;-76
2021/07/26 08:04:54;;;;;;;11.88;8.90;;;24.40;99.90;;;;;;5059218;28;20393;-77
2021/07/26 08:07:19;;;;;;;8.15;7.38;;;24.50;99.90;;;;;;5064923;28;20041;-76
2021/07/26 08:09:45;;;;;;;10.52;7.82;;;24.80;99.90;;;;;;5064014;28;20039;-77
2021/07/26 08:12:11;;;;;;;9.00;8.05;;;24.80;99.90;;;;;;5065441;28;20040;-77
2021/07/26 08:14:36;;;;;;;11.55;8.10;;;25.00;99.90;;;;;;5065467;28;20080;-77
2021/07/26 08:17:02;;;;;;;10.68;7.55;;;25.00;99.90;;;;;;5062181;28;20475;-77
2021/07/26 08:19:28;;;;;;;10.75;7.88;;;25.10;99.90;;;;;;5064949;28;20032;-77
2021/07/26 08:21:55;;;;;;;8.50;7.70;;;25.10;99.90;;;;;;5065300;28;20045;-77
2021/07/26 08:24:20;;;;;;;10.88;8.93;;;25.20;99.90;;;;;;5062984;28;20044;-77
2021/07/26 08:26:46;;;;;;;8.95;7.85;;;25.30;99.90;;;;;;5067910;28;20083;-77
2021/07/26 08:29:12;;;;;;;9.07;7.22;;;25.40;99.90;;;;;;5062800;28;20089;-77
2021/07/26 08:31:38;;;;;;;11.07;6.95;;;25.50;99.90;;;;;;5066604;28;20036;-77
2021/07/26 08:34:04;;;;;;;11.13;8.32;;;25.60;99.90;;;;;;5068989;28;20123;-76
2021/07/26 08:36:29;;;;;;;7.97;7.25;;;25.80;99.90;;;;;;5068126;28;20063;-77
2021/07/26 08:38:55;;;;;;;7.47;6.82;;;25.80;99.90;;;;;;5069575;28;20518;-77
2021/07/26 08:41:21;;;;;;;8.60;7.30;;;25.90;99.90;;;;;;5070526;28;20040;-77
2021/07/26 08:43:48;;;;;;;9.15;6.72;;;25.80;99.90;;;;;;5067869;28;20112;-77
2021/07/26 08:46:18;;;;;;;10.00;7.28;;;25.90;99.90;;;;;;5068505;28;20064;-77
2021/07/26 08:48:47;;;;;;;8.25;7.35;;;26.00;99.90;;;;;;5068584;28;20505;-78
2021/07/26 08:51:16;;;;;;;7.28;6.57;;;26.00;99.90;;;;;;5065781;28;20115;-77
2021/07/26 08:53:43;;;;;;;12.25;6.30;;;26.10;99.90;;;;;;5064750;28;20047;-77
2021/07/26 08:56:10;;;;;;;6.68;6.18;;;26.30;99.90;;;;;;5063526;28;20045;-77
2021/07/26 08:58:36;;;;;;;7.30;5.55;;;26.30;99.90;;;;;;5062931;28;20083;-77
2021/07/26 09:01:02;;;;;;;7.63;5.80;;;26.30;99.90;;;;;;5061238;28;20029;-77
2021/07/26 09:03:28;;;;;;;5.30;4.15;;;26.40;99.90;;;;;;5065109;28;20039;-77
2021/07/26 09:05:53;;;;;;;5.90;4.03;;;26.30;99.90;;;;;;5067730;28;20033;-77
2021/07/26 09:08:19;;;;;;;5.00;4.50;;;26.30;99.60;;;;;;5064843;28;20440;-77
2021/07/26 09:10:45;;;;;;;7.25;4.82;;;26.10;99.10;;;;;;5065541;28;20629;-77
2021/07/26 09:13:12;;;;;;;6.40;5.80;;;26.00;98.60;;;;;;5064479;28;20147;-77
2021/07/26 09:15:40;;;;;;;5.10;4.22;;;26.10;99.30;;;;;;5063782;28;20425;-77
2021/07/26 09:18:09;;;;;;;5.10;4.28;;;26.10;98.80;;;;;;5060291;28;20055;-77
2021/07/26 09:20:38;;;;;;;4.90;4.43;;;26.20;99.10;;;;;;5064028;28;20386;-78
2021/07/26 09:23:18;;;;;;;4.43;3.75;;;26.20;98.60;;;;;;5063705;28;21815;-78
2021/07/26 09:25:49;;;;;;;6.85;5.35;;;26.40;98.30;;;;;;5065559;28;20045;-78
2021/07/26 09:28:16;;;;;;;9.32;4.93;;;26.40;97.10;;;;;;5070634;28;20044;-78
2021/07/26 09:30:51;;;;;;;7.85;5.28;;;26.60;98.70;;;;;;5068756;28;20039;-78
2021/07/26 09:33:22;;;;;;;4.57;3.92;;;26.70;98.10;;;;;;5070435;28;20390;-76
2021/07/26 09:36:04;;;;;;;6.72;4.05;;;26.60;97.60;;;;;;5069318;28;20044;-76
2021/07/26 09:38:31;;;;;;;8.20;4.57;;;26.60;96.70;;;;;;5067501;28;20083;-76
2021/07/26 09:40:57;;;;;;;6.85;4.82;;;26.40;97.90;;;;;;5068734;28;20087;-77
2021/07/26 09:43:24;;;;;;;8.45;4.00;;;26.30;98.30;;;;;;5069071;28;20036;-76
2021/07/26 09:45:54;;;;;;;5.38;4.05;;;26.10;98.30;;;;;;5070025;28;20047;-76
2021/07/26 09:48:22;;;;;;;8.57;4.35;;;25.90;99.00;;;;;;5068884;28;20029;-76
2021/07/26 09:50:49;;;;;;;7.50;4.60;;;26.00;99.80;;;;;;5068805;28;20056;-76
2021/07/26 09:53:17;;;;;;;5.05;4.35;;;25.90;99.70;;;;;;5069967;28;20060;-76
2021/07/26 09:55:47;;;;;;;4.28;3.88;;;25.80;98.90;;;;;;5068751;28;20494;-76
2021/07/26 09:58:15;;;;;;;5.32;4.22;;;25.80;97.90;;;;;;5067595;28;20045;-76
2021/07/26 10:00:42;;;;;;;5.30;4.15;;;25.80;98.70;;;;;;5068431;28;20387;-76
2021/07/26 10:03:13;;;;;;;6.25;4.60;;;25.90;99.90;;;;;;5069734;28;20047;-76
2021/07/26 10:05:41;;;;;;;7.88;5.10;;;25.90;99.90;;;;;;5064513;28;20364;-76
2021/07/26 10:08:07;;;;;;;6.97;4.75;;;26.00;99.30;;;;;;5067811;28;20037;-76
2021/07/26 10:10:41;;;;;;;7.28;5.30;;;25.90;99.90;;;;;;5066542;28;20167;-76
2021/07/26 10:13:08;;;;;;;5.72;5.03;;;25.80;98.90;;;;;;5067961;28;20028;-76
2021/07/26 10:15:34;;;;;;;6.38;5.00;;;25.50;99.40;;;;;;5066658;28;20128;-76
2021/07/26 10:18:00;;;;;;;5.47;4.90;;;25.50;99.90;;;;;;5066160;28;20098;-76
2021/07/26 10:20:32;;;;;;;4.72;4.22;;;25.50;99.90;;;;;;5066082;28;20037;-76
2021/07/26 10:23:00;;;;;;;4.05;3.65;;;25.70;99.90;;;;;;5066342;28;20047;-76
2021/07/26 10:25:37;;;;;;;7.22;3.80;;;25.90;98.10;;;;;;5067305;28;20041;-76
2021/07/26 10:28:09;;;;;;;4.80;3.85;;;26.00;98.00;;;;;;5064462;28;20059;-76
2021/07/26 10:30:37;;;;;;;5.55;4.07;;;26.10;98.00;;;;;;5064613;28;20029;-75
2021/07/26 10:33:04;;;;;;;4.28;3.42;;;26.20;98.30;;;;;;5064974;28;20111;-75
2021/07/26 10:35:59;;;;;;;5.68;3.50;;;26.40;98.20;;;;;;5066454;28;20394;-75
2021/07/26 10:38:43;;;;;;;6.40;4.38;;;26.50;96.80;;;;;;5049997;28;20525;-75
2021/07/26 10:41:10;;;;;;;4.88;3.78;;;26.60;98.20;;;;;;5064547;28;20040;-75
2021/07/26 10:43:55;;;;;;;6.57;4.03;;;26.50;97.70;;;;;;5062569;28;20033;-75
2021/07/26 10:46:21;;;;;;;4.22;3.88;;;26.20;97.40;;;;;;5064929;28;20044;-75
2021/07/26 10:48:52;;;;;;;5.43;3.55;;;26.10;97.50;;;;;;5065368;28;20086;-75
2021/07/26 10:51:37;;;;;;;4.85;3.70;;;25.90;97.60;;;;;;5063304;28;20037;-75
2021/07/26 10:54:04;;;;;;;19.00;17.05;;;25.90;98.40;;;;;;5063084;28;20546;-75
2021/07/26 10:56:59;;;;;;;4.25;3.15;;;25.90;98.30;;;;;;5060581;28;20032;-75
2021/07/26 10:59:26;;;;;;;5.00;3.43;;;26.00;99.20;;;;;;5062204;28;20109;-76
2021/07/26 11:02:03;;;;;;;3.30;3.00;;;26.20;98.60;;;;;;5063868;28;20860;-75
2021/07/26 11:04:33;;;;;;;25.75;23.42;;;26.30;97.10;;;;;;5065666;28;20193;-75
2021/07/26 11:07:01;;;;;;;5.88;2.65;;;26.40;97.90;;;;;;5062459;28;20033;-75
2021/07/26 11:09:33;;;;;;;4.20;2.90;;;26.50;96.20;;;;;;5067402;28;20040;-75
2021/07/26 11:12:00;;;;;;;6.25;2.83;;;26.70;97.20;;;;;;5065076;28;20041;-75
2021/07/26 11:14:26;;;;;;;7.30;3.17;;;26.80;98.00;;;;;;5064840;28;20051;-75
2021/07/26 11:16:52;;;;;;;8.13;4.20;;;26.70;97.80;;;;;;5066241;28;20044;-75
2021/07/26 11:19:33;;;;;;;5.93;3.00;;;26.50;97.60;;;;;;5065940;28;20582;-75
2021/07/26 11:22:00;;;;;;;6.22;3.15;;;26.40;97.80;;;;;;5064452;28;20075;-75
2021/07/26 11:24:41;;;;;;;4.85;2.78;;;26.60;98.10;;;;;;5064402;28;20036;-75
2021/07/26 11:27:13;;;;;;;4.95;2.25;;;26.60;95.10;;;;;;5061675;28;20043;-75
2021/07/26 11:29:39;;;;;;;2.22;1.73;;;26.40;96.10;;;;;;5063143;28;20094;-75
2021/07/26 11:32:04;;;;;;;2.08;1.65;;;26.30;95.30;;;;;;5064452;28;20464;-75
2021/07/26 11:34:33;;;;;;;4.55;2.05;;;26.30;95.90;;;;;;5064476;28;20043;-75
2021/07/26 11:37:08;;;;;;;3.25;1.90;;;26.20;95.80;;;;;;5067009;28;20040;-75
2021/07/26 11:39:48;;;;;;;3.63;1.83;;;26.10;96.40;;;;;;5066139;28;20139;-75
2021/07/26 11:42:19;;;;;;;3.38;1.80;;;26.00;95.80;;;;;;5065489;28;20032;-75
2021/07/26 11:44:48;;;;;;;2.38;2.10;;;25.90;96.60;;;;;;5063186;28;20119;-75
2021/07/26 11:47:15;;;;;;;5.80;2.45;;;25.90;96.40;;;;;;5063170;28;20040;-75
2021/07/26 11:49:48;;;;;;;2.40;1.95;;;26.10;95.90;;;;;;5060747;28;20484;-75
2021/07/26 11:52:14;;;;;;;6.32;2.13;;;26.30;95.80;;;;;;5061127;28;20841;-75
2021/07/26 11:54:40;;;;;;;1.98;1.83;;;26.40;95.60;;;;;;5064783;28;20040;-75
2021/07/26 11:57:13;;;;;;;2.25;2.05;;;26.40;95.50;;;;;;5061098;28;20040;-75
2021/07/26 11:59:47;;;;;;;2.25;1.70;;;26.40;94.40;;;;;;5058114;28;22384;-75
2021/07/26 12:02:22;;;;;;;3.22;1.70;;;26.30;94.50;;;;;;5056893;28;20139;-75
2021/07/26 12:04:48;;;;;;;;;;;26.30;95.60;;;;;;5064760;28;20048;-75
2021/07/26 12:07:14;;;;;;;3.50;1.95;;;26.40;95.00;;;;;;5065999;28;20003;-75
2021/07/26 12:09:49;;;;;;;3.13;2.05;;;26.50;94.40;;;;;;5066490;28;20028;-76
2021/07/26 12:12:16;;;;;;;6.22;1.83;;;26.50;93.10;;;;;;5065433;28;20041;-75
2021/07/26 12:14:44;;;;;;;1.95;1.33;;;26.60;94.90;;;;;;5063179;28;20037;-75
2021/07/26 12:17:24;;;;;;;1.95;1.50;;;26.70;93.60;;;;;;5061051;28;20049;-75
2021/07/26 12:20:03;;;;;;;2.20;1.50;;;26.80;93.10;;;;;;5055899;28;20056;-75
2021/07/26 12:22:39;;;;;;;5.97;1.98;;;26.80;94.60;;;;;;5058281;28;20082;-75
2021/07/26 12:25:16;;;;;;;2.15;1.83;;;26.60;93.00;;;;;;5064079;28;20076;-75
2021/07/26 12:27:42;;;;;;;1.52;1.40;;;26.30;94.30;;;;;;5062046;28;20426;-75
2021/07/26 12:30:13;;;;;;;3.08;1.88;;;26.10;95.10;;;;;;5065899;28;20040;-75
2021/07/26 12:32:48;;;;;;;5.78;1.80;;;26.00;95.70;;;;;;5065134;28;20064;-75
2021/07/26 12:35:21;;;;;;;5.65;2.00;;;26.00;95.70;;;;;;5062832;28;20398;-75
2021/07/26 12:38:18;;;;;;;15.63;2.10;;;25.90;94.20;;;;;;5065609;28;20044;-75
2021/07/26 12:41:02;;;;;;;2.42;1.27;;;26.00;95.60;;;;;;5058762;28;20044;-75
2021/07/26 12:43:27;;;;;;;1.83;1.27;;;26.10;95.30;;;;;;5054638;28;20079;-75
2021/07/26 12:46:01;;;;;;;3.42;1.98;;;26.40;94.30;;;;;;5052600;28;20648;-75
2021/07/26 12:48:29;;;;;;;5.95;2.03;;;26.60;93.90;;;;;;5056312;28;20040;-75
2021/07/26 12:50:57;;;;;;;2.13;1.83;;;26.50;93.80;;;;;;5064943;28;20071;-75
2021/07/26 12:53:24;;;;;;;3.38;1.65;;;26.40;93.40;;;;;;5063761;28;20051;-75